createdAt,value
2018-01-06T00:00:33.896Z,85.86
2018-01-06T00:01:33.914Z,86.38
2018-01-06T00:02:33.927Z,86.43
2018-01-06T00:03:33.943Z,85.38
2018-01-06T00:04:33.970Z,85.62
2018-01-06T00:05:33.973Z,86.10
2018-01-06T00:06:33.990Z,86.29
2018-01-06T00:07:34.007Z,86.19
2018-01-06T00:08:34.017Z,86.47
2018-01-06T00:09:34.035Z,86.10
2018-01-06T00:10:34.048Z,86.05
2018-01-06T00:11:34.064Z,85.34
2018-01-06T00:12:34.081Z,86.19
2018-01-06T00:13:34.094Z,86.19
2018-01-06T00:14:34.111Z,86.76
2018-01-06T00:15:34.124Z,86.29
2018-01-06T00:16:34.136Z,86.38
2018-01-06T00:17:34.169Z,86.86
2018-01-06T00:18:34.169Z,86.86
2018-01-06T00:19:34.184Z,86.86
2018-01-06T00:20:34.196Z,86.19
2018-01-06T00:21:34.213Z,85.38
2018-01-06T00:22:34.236Z,85.62
2018-01-06T00:23:34.241Z,86.10
2018-01-06T00:24:34.259Z,86.57
2018-01-06T00:25:34.274Z,86.19
2018-01-06T00:26:34.288Z,85.72
2018-01-06T00:27:34.304Z,85.72
2018-01-06T00:28:34.318Z,85.34
2018-01-06T00:29:34.335Z,84.95
2018-01-06T00:30:34.348Z,84.95
2018-01-06T00:31:34.363Z,85.05
2018-01-06T00:32:34.392Z,85.53
2018-01-06T00:33:34.395Z,85.34
2018-01-06T00:34:34.410Z,86.10
2018-01-06T00:35:34.424Z,86.00
2018-01-06T00:36:34.439Z,85.53
2018-01-06T00:37:34.452Z,85.24
2018-01-06T00:38:34.467Z,86.57
2018-01-06T00:39:34.482Z,86.10
2018-01-06T00:40:34.499Z,86.10
2018-01-06T00:41:34.512Z,85.34
2018-01-06T00:42:34.526Z,85.15
2018-01-06T00:43:34.541Z,85.62
2018-01-06T00:44:34.559Z,85.53
2018-01-06T00:45:34.570Z,85.62
2018-01-06T00:46:34.602Z,85.53
2018-01-06T00:47:34.609Z,85.43
2018-01-06T00:48:34.631Z,85.72
2018-01-06T00:49:34.647Z,85.62
2018-01-06T00:50:34.647Z,85.53
2018-01-06T00:51:34.659Z,85.39
2018-01-06T00:52:34.684Z,85.49
2018-01-06T00:53:34.698Z,86.15
2018-01-06T00:54:34.707Z,85.96
2018-01-06T00:55:34.734Z,85.86
2018-01-06T00:56:34.736Z,85.77
2018-01-06T00:57:34.755Z,85.49
2018-01-06T00:58:34.766Z,85.49
2018-01-06T00:59:34.780Z,85.43
2018-01-06T01:00:34.795Z,85.34
2018-01-06T01:01:34.824Z,85.15
2018-01-06T01:02:34.835Z,85.24
2018-01-06T01:03:34.838Z,85.11
2018-01-06T01:04:34.859Z,85.05
2018-01-06T01:05:34.866Z,85.20
2018-01-06T01:06:34.884Z,85.30
2018-01-06T01:07:34.898Z,85.11
2018-01-06T01:08:34.922Z,84.91
2018-01-06T01:09:34.930Z,84.91
2018-01-06T01:10:34.941Z,85.39
2018-01-06T01:11:34.977Z,85.30
2018-01-06T01:12:34.975Z,85.11
2018-01-06T01:13:34.983Z,85.58
2018-01-06T01:14:35.004Z,85.86
2018-01-06T01:15:35.183Z,85.49
2018-01-06T01:16:35.028Z,85.49
2018-01-06T01:17:35.044Z,85.39
2018-01-06T01:18:35.056Z,85.11
2018-01-06T01:19:35.075Z,85.20
2018-01-06T01:20:35.090Z,85.20
2018-01-06T01:21:35.233Z,84.91
2018-01-06T01:22:35.117Z,85.01
2018-01-06T01:23:35.134Z,85.30
2018-01-06T01:24:35.145Z,85.20
2018-01-06T01:25:35.159Z,85.30
2018-01-06T01:26:35.173Z,85.25
2018-01-06T01:27:35.188Z,85.63
2018-01-06T01:28:35.202Z,85.91
2018-01-06T01:29:35.225Z,85.63
2018-01-06T01:30:35.236Z,85.53
2018-01-06T01:31:35.247Z,85.44
2018-01-06T01:32:35.261Z,85.35
2018-01-06T01:33:35.274Z,85.06
2018-01-06T01:34:35.290Z,86.11
2018-01-06T01:35:35.302Z,86.49
2018-01-06T01:36:35.336Z,86.68
2018-01-06T01:37:35.335Z,86.30
2018-01-06T01:38:35.350Z,85.91
2018-01-06T01:39:35.359Z,85.72
2018-01-06T01:40:35.374Z,86.39
2018-01-06T01:41:35.392Z,86.96
2018-01-06T01:42:35.406Z,87.05
2018-01-06T01:43:35.419Z,87.24
2018-01-06T01:44:35.432Z,87.87
2018-01-06T01:45:35.449Z,88.24
2018-01-06T01:46:35.464Z,88.24
2018-01-06T01:47:35.476Z,89.10
2018-01-06T01:48:35.491Z,88.81
2018-01-06T01:49:35.506Z,88.53
2018-01-06T01:50:35.523Z,88.15
2018-01-06T01:51:35.533Z,88.53
2018-01-06T01:52:35.547Z,88.15
2018-01-06T01:53:35.562Z,87.77
2018-01-06T01:54:35.575Z,88.24
2018-01-06T01:55:35.591Z,87.49
2018-01-06T01:56:35.605Z,87.49
2018-01-06T01:57:35.620Z,87.96
2018-01-06T01:58:35.631Z,88.15
2018-01-06T01:59:35.645Z,88.34
2018-01-06T02:00:35.658Z,88.34
2018-01-06T02:01:35.675Z,87.96
2018-01-06T02:02:35.693Z,88.15
2018-01-06T02:03:35.702Z,87.87
2018-01-06T02:04:35.716Z,87.96
2018-01-06T02:05:35.730Z,88.06
2018-01-06T02:06:35.743Z,87.49
2018-01-06T02:07:35.762Z,87.39
2018-01-06T02:08:35.772Z,87.30
2018-01-06T02:09:35.789Z,87.01
2018-01-06T02:10:35.805Z,87.01
2018-01-06T02:11:35.815Z,87.30
2018-01-06T02:12:35.827Z,87.49
2018-01-06T02:13:35.842Z,87.39
2018-01-06T02:14:35.861Z,87.77
2018-01-06T02:15:35.870Z,87.49
2018-01-06T02:16:35.884Z,87.58
2018-01-06T02:17:35.901Z,86.91
2018-01-06T02:18:35.914Z,87.30
2018-01-06T02:19:35.925Z,87.01
2018-01-06T02:20:35.938Z,87.20
2018-01-06T02:21:35.956Z,87.39
2018-01-06T02:22:35.968Z,87.49
2018-01-06T02:23:35.983Z,87.39
2018-01-06T02:24:35.995Z,87.77
2018-01-06T02:25:36.013Z,87.39
2018-01-06T02:26:36.025Z,87.30
2018-01-06T02:27:36.036Z,87.20
2018-01-06T02:28:36.051Z,87.30
2018-01-06T02:29:36.066Z,87.30
2018-01-06T02:30:36.078Z,87.49
2018-01-06T02:31:36.092Z,87.77
2018-01-06T02:32:36.115Z,87.58
2018-01-06T02:33:36.119Z,87.92
2018-01-06T02:34:36.180Z,87.82
2018-01-06T02:35:36.147Z,87.96
2018-01-06T02:36:36.161Z,87.63
2018-01-06T02:37:36.175Z,87.92
2018-01-06T02:38:36.189Z,87.92
2018-01-06T02:39:36.202Z,87.92
2018-01-06T02:40:36.220Z,87.96
2018-01-06T02:41:36.231Z,87.73
2018-01-06T02:42:36.246Z,88.29
2018-01-06T02:43:36.261Z,87.73
2018-01-06T02:44:36.272Z,88.10
2018-01-06T02:45:36.286Z,87.77
2018-01-06T02:46:36.299Z,88.20
2018-01-06T02:47:36.319Z,88.01
2018-01-06T02:48:36.329Z,87.63
2018-01-06T02:49:36.344Z,88.10
2018-01-06T02:50:36.365Z,87.54
2018-01-06T02:51:36.371Z,87.35
2018-01-06T02:52:36.380Z,86.78
2018-01-06T02:53:36.399Z,87.06
2018-01-06T02:54:36.411Z,87.16
2018-01-06T02:55:36.429Z,86.87
2018-01-06T02:56:36.439Z,86.87
2018-01-06T02:57:36.453Z,86.97
2018-01-06T02:58:36.466Z,87.25
2018-01-06T02:59:36.478Z,86.97
2018-01-06T03:00:36.494Z,87.45
2018-01-06T03:01:36.511Z,87.25
2018-01-06T03:02:36.521Z,87.16
2018-01-06T03:03:36.538Z,87.63
2018-01-06T03:04:36.549Z,88.10
2018-01-06T03:05:36.564Z,87.82
2018-01-06T03:06:36.577Z,87.87
2018-01-06T03:07:36.590Z,88.16
2018-01-06T03:08:36.604Z,88.29
2018-01-06T03:09:36.625Z,88.68
2018-01-06T03:10:36.630Z,88.29
2018-01-06T03:11:36.644Z,89.06
2018-01-06T03:12:36.657Z,88.48
2018-01-06T03:13:36.674Z,89.06
2018-01-06T03:14:36.684Z,89.15
2018-01-06T03:15:36.698Z,89.06
2018-01-06T03:16:36.712Z,89.43
2018-01-06T03:17:36.727Z,89.11
2018-01-06T03:18:36.740Z,89.48
2018-01-06T03:19:36.755Z,88.77
2018-01-06T03:20:36.770Z,88.48
2018-01-06T03:21:36.780Z,88.10
2018-01-06T03:22:36.793Z,88.10
2018-01-06T03:23:36.814Z,87.92
2018-01-06T03:24:36.824Z,87.92
2018-01-06T03:25:36.836Z,88.10
2018-01-06T03:26:36.853Z,88.10
2018-01-06T03:27:36.871Z,87.73
2018-01-06T03:28:36.874Z,87.35
2018-01-06T03:29:36.896Z,87.82
2018-01-06T03:30:36.930Z,88.01
2018-01-06T03:31:36.915Z,87.82
2018-01-06T03:32:36.930Z,88.10
2018-01-06T03:33:36.944Z,87.82
2018-01-06T03:34:36.956Z,87.87
2018-01-06T03:35:36.969Z,87.87
2018-01-06T03:36:36.984Z,87.87
2018-01-06T03:37:37.005Z,87.68
2018-01-06T03:38:37.009Z,88.06
2018-01-06T03:39:37.026Z,87.97
2018-01-06T03:40:37.038Z,88.06
2018-01-06T03:41:37.050Z,88.44
2018-01-06T03:42:37.064Z,88.35
2018-01-06T03:43:37.086Z,88.25
2018-01-06T03:44:37.096Z,88.73
2018-01-06T03:45:37.103Z,88.92
2018-01-06T03:46:37.117Z,88.16
2018-01-06T03:47:37.130Z,88.35
2018-01-06T03:48:37.143Z,88.44
2018-01-06T03:49:37.159Z,88.25
2018-01-06T03:50:37.173Z,88.44
2018-01-06T03:51:37.184Z,88.54
2018-01-06T03:52:37.202Z,88.06
2018-01-06T03:53:37.216Z,88.29
2018-01-06T03:54:37.227Z,87.59
2018-01-06T03:55:37.238Z,87.87
2018-01-06T03:56:37.252Z,87.77
2018-01-06T03:57:37.268Z,87.87
2018-01-06T03:58:37.282Z,88.16
2018-01-06T03:59:37.293Z,87.59
2018-01-06T04:00:37.308Z,87.77
2018-01-06T04:01:37.322Z,88.44
2018-01-06T04:02:37.337Z,87.68
2018-01-06T04:03:37.348Z,88.06
2018-01-06T04:04:37.360Z,87.97
2018-01-06T04:05:37.375Z,88.06
2018-01-06T04:06:37.389Z,88.06
2018-01-06T04:07:37.401Z,88.54
2018-01-06T04:08:37.416Z,88.16
2018-01-06T04:09:37.427Z,88.16
2018-01-06T04:10:37.447Z,88.44
2018-01-06T04:11:37.454Z,88.35
2018-01-06T04:12:37.468Z,88.44
2018-01-06T04:13:37.481Z,88.25
2018-01-06T04:14:37.496Z,88.16
2018-01-06T04:15:37.511Z,88.25
2018-01-06T04:16:37.530Z,88.63
2018-01-06T04:17:37.553Z,88.63
2018-01-06T04:18:37.552Z,88.25
2018-01-06T04:19:37.565Z,88.63
2018-01-06T04:20:37.574Z,88.73
2018-01-06T04:21:37.591Z,89.01
2018-01-06T04:22:37.626Z,88.49
2018-01-06T04:23:37.616Z,88.82
2018-01-06T04:24:37.628Z,88.92
2018-01-06T04:25:37.645Z,88.35
2018-01-06T04:26:37.655Z,87.97
2018-01-06T04:27:37.669Z,88.63
2018-01-06T04:28:37.682Z,88.63
2018-01-06T04:29:37.696Z,88.44
2018-01-06T04:30:37.717Z,88.25
2018-01-06T04:31:37.722Z,88.16
2018-01-06T04:32:37.738Z,88.16
2018-01-06T04:33:37.751Z,88.35
2018-01-06T04:34:37.763Z,88.82
2018-01-06T04:35:37.777Z,88.25
2018-01-06T04:36:37.789Z,88.63
2018-01-06T04:37:37.807Z,88.25
2018-01-06T04:38:37.818Z,88.44
2018-01-06T04:39:37.827Z,88.73
2018-01-06T04:40:37.842Z,88.16
2018-01-06T04:41:37.856Z,88.25
2018-01-06T04:42:37.867Z,88.78
2018-01-06T04:43:37.881Z,88.96
2018-01-06T04:44:37.897Z,88.54
2018-01-06T04:45:37.909Z,88.35
2018-01-06T04:46:37.924Z,88.16
2018-01-06T04:47:37.934Z,88.02
2018-01-06T04:48:37.947Z,88.21
2018-01-06T04:49:37.962Z,88.21
2018-01-06T04:50:37.975Z,88.35
2018-01-06T04:51:37.985Z,88.35
2018-01-06T04:52:38.001Z,88.44
2018-01-06T04:53:38.013Z,88.63
2018-01-06T04:54:38.025Z,88.25
2018-01-06T04:55:38.040Z,88.16
2018-01-06T04:56:38.052Z,88.40
2018-01-06T04:57:38.066Z,88.16
2018-01-06T04:58:38.082Z,88.02
2018-01-06T04:59:38.148Z,88.40
2018-01-06T05:00:38.107Z,88.78
2018-01-06T05:01:38.117Z,88.40
2018-01-06T05:02:38.132Z,88.21
2018-01-06T05:03:38.145Z,88.78
2018-01-06T05:04:38.158Z,88.78
2018-01-06T05:05:38.173Z,88.96
2018-01-06T05:06:38.186Z,89.06
2018-01-06T05:07:38.197Z,89.15
2018-01-06T05:08:38.210Z,89.15
2018-01-06T05:09:38.228Z,88.68
2018-01-06T05:10:38.238Z,88.78
2018-01-06T05:11:38.249Z,88.96
2018-01-06T05:12:38.260Z,88.78
2018-01-06T05:13:38.275Z,88.49
2018-01-06T05:14:38.290Z,88.78
2018-01-06T05:15:38.301Z,88.59
2018-01-06T05:16:38.315Z,88.40
2018-01-06T05:17:38.328Z,88.40
2018-01-06T05:18:38.341Z,88.21
2018-01-06T05:19:38.357Z,88.59
2018-01-06T05:20:38.368Z,88.78
2018-01-06T05:21:38.380Z,88.49
2018-01-06T05:22:38.404Z,88.68
2018-01-06T05:23:38.406Z,88.30
2018-01-06T05:24:38.419Z,88.11
2018-01-06T05:25:38.454Z,88.02
2018-01-06T05:26:38.444Z,88.40
2018-01-06T05:27:38.459Z,88.30
2018-01-06T05:28:38.473Z,88.59
2018-01-06T05:29:38.489Z,88.59
2018-01-06T05:30:38.497Z,88.30
2018-01-06T05:31:38.513Z,88.02
2018-01-06T05:32:38.525Z,88.49
2018-01-06T05:33:38.536Z,88.30
2018-01-06T05:34:38.550Z,88.59
2018-01-06T05:35:38.565Z,88.30
2018-01-06T05:36:38.575Z,88.59
2018-01-06T05:37:38.589Z,88.68
2018-01-06T05:38:38.601Z,88.87
2018-01-06T05:39:38.614Z,88.68
2018-01-06T05:40:38.631Z,88.96
2018-01-06T05:41:38.640Z,88.87
2018-01-06T05:42:38.657Z,89.15
2018-01-06T05:43:38.666Z,89.15
2018-01-06T05:44:38.680Z,88.96
2018-01-06T05:45:38.698Z,89.06
2018-01-06T05:46:38.709Z,89.06
2018-01-06T05:47:38.723Z,88.78
2018-01-06T05:48:38.733Z,89.06
2018-01-06T05:49:38.747Z,89.06
2018-01-06T05:50:38.759Z,88.59
2018-01-06T05:51:38.771Z,88.59
2018-01-06T05:52:38.784Z,89.15
2018-01-06T05:53:38.799Z,88.87
2018-01-06T05:54:38.812Z,89.06
2018-01-06T05:55:38.821Z,89.34
2018-01-06T05:56:38.836Z,89.44
2018-01-06T05:57:38.848Z,89.91
2018-01-06T05:58:38.862Z,90.01
2018-01-06T05:59:38.874Z,89.72
2018-01-06T06:00:38.889Z,89.44
2018-01-06T06:01:38.902Z,90.01
2018-01-06T06:02:38.920Z,89.72
2018-01-06T06:03:38.928Z,89.91
2018-01-06T06:04:38.942Z,89.25
2018-01-06T06:05:38.953Z,88.96
2018-01-06T06:06:38.968Z,89.06
2018-01-06T06:07:38.979Z,89.25
2018-01-06T06:08:38.997Z,89.15
2018-01-06T06:09:39.008Z,89.06
2018-01-06T06:10:39.019Z,89.15
2018-01-06T06:11:39.031Z,88.78
2018-01-06T06:12:39.046Z,89.25
2018-01-06T06:13:39.059Z,89.06
2018-01-06T06:14:39.071Z,89.15
2018-01-06T06:15:39.084Z,88.96
2018-01-06T06:16:39.098Z,88.68
2018-01-06T06:17:39.111Z,88.96
2018-01-06T06:18:39.125Z,88.11
2018-01-06T06:19:39.137Z,88.02
2018-01-06T06:20:39.159Z,88.21
2018-01-06T06:21:39.192Z,88.78
2018-01-06T06:22:39.176Z,89.15
2018-01-06T06:23:39.187Z,88.96
2018-01-06T06:24:39.207Z,89.06
2018-01-06T06:25:39.215Z,89.06
2018-01-06T06:26:39.228Z,89.25
2018-01-06T06:27:39.241Z,89.15
2018-01-06T06:28:39.257Z,88.40
2018-01-06T06:29:39.268Z,88.96
2018-01-06T06:30:39.281Z,88.68
2018-01-06T06:31:39.293Z,88.68
2018-01-06T06:32:39.311Z,88.40
2018-01-06T06:33:39.326Z,88.40
2018-01-06T06:34:39.339Z,88.78
2018-01-06T06:35:39.346Z,88.78
2018-01-06T06:36:39.359Z,88.78
2018-01-06T06:37:39.372Z,88.21
2018-01-06T06:38:39.384Z,88.59
2018-01-06T06:39:39.401Z,88.78
2018-01-06T06:40:39.411Z,88.68
2018-01-06T06:41:39.427Z,88.87
2018-01-06T06:42:39.438Z,88.49
2018-01-06T06:43:39.450Z,89.15
2018-01-06T06:44:39.462Z,89.06
2018-01-06T06:45:39.477Z,89.06
2018-01-06T06:46:39.493Z,89.25
2018-01-06T06:47:39.508Z,88.49
2018-01-06T06:48:39.518Z,88.59
2018-01-06T06:49:39.527Z,88.59
2018-01-06T06:50:39.546Z,89.25
2018-01-06T06:51:39.554Z,89.15
2018-01-06T06:52:39.568Z,89.25
2018-01-06T06:53:39.580Z,89.25
2018-01-06T06:54:39.594Z,88.96
2018-01-06T06:55:39.609Z,88.96
2018-01-06T06:56:39.622Z,89.34
2018-01-06T06:57:39.633Z,89.06
2018-01-06T06:58:39.650Z,88.96
2018-01-06T06:59:39.663Z,89.25
2018-01-06T07:00:39.671Z,89.25
2018-01-06T07:01:39.687Z,88.68
2018-01-06T07:02:39.738Z,88.96
2018-01-06T07:03:39.715Z,89.15
2018-01-06T07:04:39.724Z,89.53
2018-01-06T07:05:39.800Z,89.63
2018-01-06T07:06:39.755Z,89.72
2018-01-06T07:07:39.798Z,89.53
2018-01-06T07:08:39.776Z,89.34
2018-01-06T07:09:39.789Z,89.34
2018-01-06T07:10:39.804Z,89.06
2018-01-06T07:11:39.832Z,89.15
2018-01-06T07:12:39.828Z,89.34
2018-01-06T07:13:39.841Z,89.34
2018-01-06T07:14:39.858Z,88.87
2018-01-06T07:15:39.870Z,89.15
2018-01-06T07:16:39.881Z,88.87
2018-01-06T07:17:39.891Z,88.96
2018-01-06T07:18:39.905Z,88.96
2018-01-06T07:19:39.916Z,88.78
2018-01-06T07:20:39.938Z,88.68
2018-01-06T07:21:39.944Z,88.78
2018-01-06T07:22:39.957Z,88.96
2018-01-06T07:23:39.969Z,88.78
2018-01-06T07:24:39.981Z,88.78
2018-01-06T07:25:39.997Z,88.30
2018-01-06T07:26:40.009Z,88.78
2018-01-06T07:27:40.025Z,88.78
2018-01-06T07:28:40.038Z,88.40
2018-01-06T07:29:40.046Z,88.59
2018-01-06T07:30:40.066Z,88.59
2018-01-06T07:31:40.073Z,88.87
2018-01-06T07:32:40.084Z,88.68
2018-01-06T07:33:40.110Z,88.78
2018-01-06T07:34:40.113Z,88.30
2018-01-06T07:35:40.128Z,88.73
2018-01-06T07:36:40.134Z,88.59
2018-01-06T07:37:40.150Z,88.68
2018-01-06T07:38:40.164Z,88.68
2018-01-06T07:39:40.175Z,88.59
2018-01-06T07:40:40.190Z,89.15
2018-01-06T07:41:40.241Z,88.92
2018-01-06T07:42:40.215Z,89.11
2018-01-06T07:43:40.239Z,89.06
2018-01-06T07:44:40.239Z,89.25
2018-01-06T07:45:40.253Z,89.06
2018-01-06T07:46:40.266Z,89.44
2018-01-06T07:47:40.279Z,89.06
2018-01-06T07:48:40.485Z,89.44
2018-01-06T07:49:40.306Z,89.68
2018-01-06T07:50:40.316Z,89.53
2018-01-06T07:51:40.355Z,89.72
2018-01-06T07:52:40.343Z,89.53
2018-01-06T07:53:40.355Z,89.72
2018-01-06T07:54:40.368Z,89.68
2018-01-06T07:55:40.382Z,89.44
2018-01-06T07:56:40.460Z,89.25
2018-01-06T07:57:40.408Z,88.96
2018-01-06T07:58:40.422Z,89.34
2018-01-06T07:59:40.432Z,89.25
2018-01-06T08:00:40.449Z,89.25
2018-01-06T08:01:40.461Z,89.53
2018-01-06T08:02:40.473Z,89.53
2018-01-06T08:03:40.492Z,89.63
2018-01-06T08:04:40.502Z,89.77
2018-01-06T08:05:40.511Z,89.82
2018-01-06T08:06:40.535Z,90.10
2018-01-06T08:07:40.538Z,89.49
2018-01-06T08:08:40.553Z,89.82
2018-01-06T08:09:40.564Z,89.72
2018-01-06T08:10:40.576Z,89.06
2018-01-06T08:11:40.590Z,88.87
2018-01-06T08:12:40.624Z,88.11
2018-01-06T08:13:40.618Z,88.30
2018-01-06T08:14:40.632Z,87.83
2018-01-06T08:15:40.643Z,87.83
2018-01-06T08:16:40.657Z,87.83
2018-01-06T08:17:40.702Z,87.64
2018-01-06T08:18:40.700Z,88.02
2018-01-06T08:19:40.697Z,87.83
2018-01-06T08:20:40.707Z,87.92
2018-01-06T08:21:40.730Z,88.30
2018-01-06T08:22:40.733Z,88.11
2018-01-06T08:23:40.749Z,88.21
2018-01-06T08:24:40.761Z,87.64
2018-01-06T08:25:40.783Z,87.73
2018-01-06T08:26:40.795Z,87.21
2018-01-06T08:27:40.800Z,87.49
2018-01-06T08:28:40.815Z,87.30
2018-01-06T08:29:40.826Z,87.68
2018-01-06T08:30:40.844Z,87.87
2018-01-06T08:31:40.861Z,87.87
2018-01-06T08:32:40.871Z,87.68
2018-01-06T08:33:40.880Z,87.68
2018-01-06T08:34:40.898Z,87.87
2018-01-06T08:35:40.908Z,87.30
2018-01-06T08:36:41.101Z,87.30
2018-01-06T08:37:40.939Z,87.30
2018-01-06T08:38:40.950Z,87.21
2018-01-06T08:39:40.962Z,87.21
2018-01-06T08:40:40.975Z,87.40
2018-01-06T08:41:40.993Z,86.83
2018-01-06T08:42:41.002Z,87.12
2018-01-06T08:43:41.019Z,87.40
2018-01-06T08:44:41.029Z,86.93
2018-01-06T08:45:41.046Z,86.30
2018-01-06T08:46:41.061Z,86.49
2018-01-06T08:47:41.071Z,86.11
2018-01-06T08:48:41.084Z,86.02
2018-01-06T08:49:41.098Z,85.45
2018-01-06T08:50:41.111Z,85.83
2018-01-06T08:51:41.131Z,85.74
2018-01-06T08:52:41.144Z,85.40
2018-01-06T08:53:41.152Z,84.98
2018-01-06T08:54:41.168Z,85.07
2018-01-06T08:55:41.182Z,85.36
2018-01-06T08:56:41.195Z,84.41
2018-01-06T08:57:41.211Z,85.11
2018-01-06T08:58:41.250Z,84.45
2018-01-06T08:59:41.238Z,84.83
2018-01-06T09:00:41.251Z,85.49
2018-01-06T09:01:41.267Z,84.83
2018-01-06T09:02:41.281Z,84.92
2018-01-06T09:03:41.452Z,84.74
2018-01-06T09:04:41.315Z,85.21
2018-01-06T09:05:41.322Z,85.40
2018-01-06T09:06:41.339Z,85.11
2018-01-06T09:07:41.354Z,84.64
2018-01-06T09:08:41.364Z,84.74
2018-01-06T09:09:41.380Z,84.64
2018-01-06T09:10:41.426Z,84.97
2018-01-06T09:11:41.447Z,84.21
2018-01-06T09:12:41.422Z,84.59
2018-01-06T09:13:41.438Z,83.83
2018-01-06T09:14:41.461Z,83.54
2018-01-06T09:15:41.465Z,83.83
2018-01-06T09:16:41.480Z,83.26
2018-01-06T09:17:41.529Z,83.36
2018-01-06T09:18:41.510Z,83.16
2018-01-06T09:19:41.526Z,83.64
2018-01-06T09:20:41.540Z,83.64
2018-01-06T09:21:41.559Z,83.54
2018-01-06T09:22:41.583Z,83.54
2018-01-06T09:23:41.584Z,83.16
2018-01-06T09:24:41.602Z,83.16
2018-01-06T09:25:41.612Z,82.92
2018-01-06T09:26:41.629Z,82.92
2018-01-06T09:27:41.641Z,82.07
2018-01-06T09:28:41.658Z,82.26
2018-01-06T09:29:41.677Z,81.87
2018-01-06T09:30:41.691Z,81.40
2018-01-06T09:31:41.702Z,81.30
2018-01-06T09:32:41.718Z,81.59
2018-01-06T09:33:41.732Z,81.78
2018-01-06T09:34:41.750Z,81.59
2018-01-06T09:35:41.765Z,81.30
2018-01-06T09:36:41.787Z,81.54
2018-01-06T09:37:41.796Z,81.35
2018-01-06T09:38:41.806Z,81.30
2018-01-06T09:39:41.822Z,81.78
2018-01-06T09:40:41.836Z,82.45
2018-01-06T09:41:41.855Z,81.78
2018-01-06T09:42:41.871Z,82.16
2018-01-06T09:43:41.881Z,82.07
2018-01-06T09:44:41.897Z,81.97
2018-01-06T09:45:41.911Z,81.87
2018-01-06T09:46:41.931Z,82.73
2018-01-06T09:47:41.943Z,83.49
2018-01-06T09:48:41.956Z,84.25
2018-01-06T09:49:41.972Z,84.06
2018-01-06T09:50:41.988Z,83.68
2018-01-06T09:51:42.000Z,83.87
2018-01-06T09:52:42.016Z,83.49
2018-01-06T09:53:42.063Z,83.87
2018-01-06T09:54:42.056Z,83.59
2018-01-06T09:55:42.066Z,83.20
2018-01-06T09:56:42.080Z,83.01
2018-01-06T09:57:42.094Z,82.82
2018-01-06T09:58:42.108Z,83.39
2018-01-06T09:59:42.121Z,83.20
2018-01-06T10:00:42.144Z,83.01
2018-01-06T10:01:42.154Z,83.30
2018-01-06T10:02:42.308Z,82.58
2018-01-06T10:03:42.186Z,81.73
2018-01-06T10:04:42.203Z,82.20
2018-01-06T10:05:42.214Z,81.44
2018-01-06T10:06:42.228Z,81.06
2018-01-06T10:07:42.254Z,81.54
2018-01-06T10:08:42.262Z,81.06
2018-01-06T10:09:42.277Z,81.35
2018-01-06T10:10:42.291Z,81.44
2018-01-06T10:11:42.306Z,80.96
2018-01-06T10:12:42.325Z,81.06
2018-01-06T10:13:42.338Z,81.10
2018-01-06T10:14:42.350Z,81.73
2018-01-06T10:15:42.366Z,82.29
2018-01-06T10:16:42.384Z,81.82
2018-01-06T10:17:42.407Z,81.86
2018-01-06T10:18:42.573Z,82.10
2018-01-06T10:19:42.430Z,81.67
2018-01-06T10:20:42.449Z,82.43
2018-01-06T10:21:42.459Z,81.58
2018-01-06T10:22:42.473Z,80.72
2018-01-06T10:23:42.486Z,80.34
2018-01-06T10:24:42.504Z,80.53
2018-01-06T10:25:42.521Z,80.72
2018-01-06T10:26:42.540Z,80.10
2018-01-06T10:27:42.549Z,79.72
2018-01-06T10:28:42.566Z,78.77
2018-01-06T10:29:42.579Z,78.48
2018-01-06T10:30:42.602Z,78.67
2018-01-06T10:31:42.612Z,78.96
2018-01-06T10:32:42.632Z,78.00
2018-01-06T10:33:42.642Z,78.29
2018-01-06T10:34:42.661Z,77.91
2018-01-06T10:35:42.674Z,78.10
2018-01-06T10:36:42.692Z,77.43
2018-01-06T10:37:42.705Z,77.53
2018-01-06T10:38:42.875Z,78.00
2018-01-06T10:39:42.735Z,77.91
2018-01-06T10:40:42.761Z,77.76
2018-01-06T10:41:42.768Z,77.37
2018-01-06T10:42:42.786Z,77.28
2018-01-06T10:43:42.799Z,77.76
2018-01-06T10:44:42.817Z,77.47
2018-01-06T10:45:42.833Z,77.66
2018-01-06T10:46:42.850Z,77.47
2018-01-06T10:47:42.862Z,77.28
2018-01-06T10:48:42.879Z,77.72
2018-01-06T10:49:42.929Z,77.66
2018-01-06T10:50:42.912Z,77.37
2018-01-06T10:51:42.932Z,77.56
2018-01-06T10:52:42.943Z,77.19
2018-01-06T10:53:42.960Z,77.56
2018-01-06T10:54:42.980Z,77.56
2018-01-06T10:55:43.110Z,77.76
2018-01-06T10:56:43.009Z,77.09
2018-01-06T10:57:43.022Z,76.57
2018-01-06T10:58:43.038Z,77.00
2018-01-06T10:59:43.052Z,76.90
2018-01-06T11:00:43.071Z,77.56
2018-01-06T11:01:43.090Z,77.37
2018-01-06T11:02:43.100Z,77.00
2018-01-06T11:03:43.118Z,76.90
2018-01-06T11:04:43.134Z,77.19
2018-01-06T11:05:43.146Z,76.81
2018-01-06T11:06:43.170Z,76.71
2018-01-06T11:07:43.181Z,77.09
2018-01-06T11:08:43.198Z,77.37
2018-01-06T11:09:43.211Z,77.47
2018-01-06T11:10:43.230Z,77.62
2018-01-06T11:11:43.244Z,78.00
2018-01-06T11:12:43.259Z,78.14
2018-01-06T11:13:43.277Z,77.85
2018-01-06T11:14:43.294Z,77.15
2018-01-06T11:15:43.307Z,78.38
2018-01-06T11:16:43.322Z,78.91
2018-01-06T11:17:43.340Z,79.33
2018-01-06T11:18:43.356Z,79.96
2018-01-06T11:19:43.371Z,79.72
2018-01-06T11:20:43.428Z,79.96
2018-01-06T11:21:43.402Z,79.91
2018-01-06T11:22:43.419Z,79.72
2018-01-06T11:23:43.433Z,79.62
2018-01-06T11:24:43.451Z,78.77
2018-01-06T11:25:43.469Z,78.57
2018-01-06T11:26:43.482Z,78.19
2018-01-06T11:27:43.495Z,77.91
2018-01-06T11:28:43.513Z,78.38
2018-01-06T11:29:43.528Z,77.91
2018-01-06T11:30:43.542Z,78.29
2018-01-06T11:31:43.564Z,77.91
2018-01-06T11:32:43.574Z,78.04
2018-01-06T11:33:43.590Z,78.23
2018-01-06T11:34:43.609Z,77.95
2018-01-06T11:35:43.623Z,77.62
2018-01-06T11:36:43.640Z,77.95
2018-01-06T11:37:43.655Z,77.56
2018-01-06T11:38:43.672Z,77.09
2018-01-06T11:39:43.687Z,77.19
2018-01-06T11:40:43.702Z,77.56
2018-01-06T11:41:43.719Z,77.37
2018-01-06T11:42:43.734Z,77.37
2018-01-06T11:43:43.769Z,77.56
2018-01-06T11:44:43.781Z,77.09
2018-01-06T11:45:43.781Z,77.47
2018-01-06T11:46:43.797Z,77.56
2018-01-06T11:47:43.812Z,77.56
2018-01-06T11:48:43.830Z,77.56
2018-01-06T11:49:43.843Z,77.19
2018-01-06T11:50:43.859Z,76.42
2018-01-06T11:51:43.874Z,76.90
2018-01-06T11:52:43.897Z,76.81
2018-01-06T11:53:43.911Z,76.65
2018-01-06T11:54:43.925Z,76.52
2018-01-06T11:55:43.943Z,75.67
2018-01-06T11:56:43.957Z,76.23
2018-01-06T11:57:43.978Z,76.14
2018-01-06T11:58:43.992Z,76.08
2018-01-06T11:59:44.003Z,76.75
2018-01-06T12:00:44.020Z,76.56
2018-01-06T12:01:44.036Z,76.84
2018-01-06T12:02:44.051Z,76.08
2018-01-06T12:03:44.067Z,76.23
2018-01-06T12:04:44.087Z,77.37
2018-01-06T12:05:44.155Z,77.19
2018-01-06T12:06:44.138Z,76.56
2018-01-06T12:07:44.133Z,75.79
2018-01-06T12:08:44.148Z,75.60
2018-01-06T12:09:44.164Z,75.04
2018-01-06T12:10:44.180Z,74.75
2018-01-06T12:11:44.199Z,74.94
2018-01-06T12:12:44.230Z,74.46
2018-01-06T12:13:44.229Z,74.65
2018-01-06T12:14:44.246Z,74.75
2018-01-06T12:15:44.261Z,74.75
2018-01-06T12:16:44.287Z,74.75
2018-01-06T12:17:44.293Z,74.56
2018-01-06T12:18:44.310Z,74.56
2018-01-06T12:19:44.326Z,74.94
2018-01-06T12:20:44.342Z,73.99
2018-01-06T12:21:44.356Z,74.56
2018-01-06T12:22:44.390Z,74.65
2018-01-06T12:23:44.389Z,74.84
2018-01-06T12:24:44.408Z,75.13
2018-01-06T12:25:44.429Z,74.75
2018-01-06T12:26:44.436Z,75.32
2018-01-06T12:27:44.456Z,74.75
2018-01-06T12:28:44.492Z,74.75
2018-01-06T12:29:44.486Z,74.84
2018-01-06T12:30:44.503Z,75.13
2018-01-06T12:31:44.518Z,74.84
2018-01-06T12:32:44.535Z,74.98
2018-01-06T12:33:44.558Z,74.94
2018-01-06T12:34:44.573Z,74.98
2018-01-06T12:35:44.584Z,74.79
2018-01-06T12:36:44.602Z,75.36
2018-01-06T12:37:44.615Z,75.13
2018-01-06T12:38:44.636Z,74.75
2018-01-06T12:39:44.649Z,74.75
2018-01-06T12:40:44.665Z,75.32
2018-01-06T12:41:44.682Z,75.13
2018-01-06T12:42:44.699Z,74.94
2018-01-06T12:43:44.714Z,74.94
2018-01-06T12:44:44.733Z,74.98
2018-01-06T12:45:44.748Z,74.75
2018-01-06T12:46:44.764Z,74.94
2018-01-06T12:47:44.778Z,75.60
2018-01-06T12:48:44.795Z,75.79
2018-01-06T12:49:44.816Z,75.99
2018-01-06T12:50:44.831Z,75.89
2018-01-06T12:51:44.845Z,75.89
2018-01-06T12:52:44.991Z,75.32